Time;durP1;ratioP1;P1;durP2;ratioP2;P2;SDS_P1;SDS_P2;PMS_P1;PMS_P2;Temp;Humidity;BMP_temperature;BMP_pressure;BME280_temperature;BME280_humidity;BME280_pressure;Samples;Min_cycle;Max_cycle;Signal;HPM_P1;HPM_P2
2021/12/04 00:02:04;;;;;;;11.93;7.63;;;;;4.50;99513.00;;;;4967231;28;20257;-72
2021/12/04 00:04:53;;;;;;;16.83;7.20;;;;;4.60;99505.00;;;;4965093;28;20227;-73
2021/12/04 00:07:39;;;;;;;11.67;6.73;;;;;4.60;99485.00;;;;4982396;28;20226;-72
2021/12/04 00:10:30;;;;;;;11.03;7.37;;;;;4.60;99490.00;;;;4973999;28;20753;-72
2021/12/04 00:13:16;;;;;;;10.93;7.13;;;;;4.60;99485.00;;;;4979593;28;20234;-73
2021/12/04 00:16:03;;;;;;;10.87;7.40;;;;;4.50;99482.00;;;;4957202;28;20248;-73
2021/12/04 00:18:50;;;;;;;12.40;7.77;;;;;4.50;99479.00;;;;4959045;28;20238;-73
2021/12/04 00:21:36;;;;;;;12.10;6.53;;;;;4.50;99477.00;;;;4963509;28;20377;-73
2021/12/04 00:24:23;;;;;;;10.83;7.27;;;;;4.50;99462.00;;;;4959992;28;20231;-71
2021/12/04 00:27:10;;;;;;;11.30;7.17;;;;;4.60;99458.00;;;;4959175;28;20312;-72
2021/12/04 00:29:58;;;;;;;9.90;6.73;;;;;4.60;99456.00;;;;4958039;28;20236;-72
2021/12/04 00:32:54;;;;;;;10.17;6.83;;;;;4.50;99450.00;;;;4954239;28;20231;-72
2021/12/04 00:35:46;;;;;;;16.37;7.03;;;;;4.50;99451.00;;;;4951009;28;20747;-71
2021/12/04 00:50:48;;;;;;;12.80;7.17;;;;;4.60;99441.00;;;;4979491;28;20230;-73
2021/12/04 00:53:34;;;;;;;11.00;7.23;;;;;4.50;99437.00;;;;4968174;28;20239;-73
2021/12/04 00:56:20;;;;;;;12.23;6.70;;;;;4.50;99440.00;;;;4976980;28;20292;-73
2021/12/04 00:59:07;;;;;;;9.70;6.77;;;;;4.60;99433.00;;;;4969021;28;20238;-72
2021/12/04 01:01:55;;;;;;;10.80;6.57;;;;;4.50;99431.00;;;;4958653;28;20235;-72
2021/12/04 01:04:41;;;;;;;10.77;7.13;;;;;4.60;99426.00;;;;5001656;28;20227;-72
2021/12/04 01:07:28;;;;;;;10.23;7.00;;;;;4.60;99423.00;;;;4995859;28;20724;-73
2021/12/04 01:10:14;;;;;;;10.00;6.57;;;;;4.60;99420.00;;;;4957649;28;20232;-72
2021/12/04 01:13:04;;;;;;;11.10;7.07;;;;;4.60;99426.00;;;;4972263;28;20276;-73
2021/12/04 01:15:50;;;;;;;11.83;7.20;;;;;4.70;99416.00;;;;4968212;28;20290;-73
2021/12/04 01:18:38;;;;;;;13.43;6.77;;;;;4.60;99420.00;;;;4965610;28;20765;-74
2021/12/04 01:21:24;;;;;;;11.03;6.97;;;;;4.60;99425.00;;;;4989181;28;20923;-72
2021/12/04 01:24:11;;;;;;;11.63;6.43;;;;;4.70;99419.00;;;;4966660;28;20976;-72
2021/12/04 01:26:57;;;;;;;15.87;6.83;;;;;4.60;99414.00;;;;4981778;28;20390;-71
2021/12/04 01:29:44;;;;;;;13.37;7.50;;;;;4.60;99404.00;;;;4958613;28;20307;-73
2021/12/04 01:32:30;;;;;;;14.67;7.27;;;;;4.60;99413.00;;;;4965489;28;20722;-72
2021/12/04 01:35:17;;;;;;;9.80;6.93;;;;;4.60;99410.00;;;;4967299;28;20243;-73
2021/12/04 01:38:04;;;;;;;12.37;7.33;;;;;4.60;99412.00;;;;4973873;28;20247;-75
2021/12/04 01:40:50;;;;;;;11.20;7.70;;;;;4.60;99402.00;;;;4958552;28;20227;-72
2021/12/04 01:43:37;;;;;;;12.43;7.60;;;;;4.60;99408.00;;;;4998528;28;20228;-74
2021/12/04 01:46:23;;;;;;;14.60;7.53;;;;;4.50;99398.00;;;;4964040;28;20734;-72
2021/12/04 01:49:09;;;;;;;11.13;6.40;;;;;4.60;99394.00;;;;4981110;28;20705;-72
2021/12/04 01:51:57;;;;;;;10.23;6.90;;;;;4.60;99399.00;;;;4964711;28;20222;-74
2021/12/04 01:54:43;;;;;;;9.87;7.00;;;;;4.60;99400.00;;;;4972626;28;20737;-72
2021/12/04 01:57:30;;;;;;;12.27;7.03;;;;;4.70;99403.00;;;;4966098;28;20309;-73
2021/12/04 02:00:16;;;;;;;13.20;7.90;;;;;4.60;99406.00;;;;4961114;28;20879;-74
2021/12/04 02:03:04;;;;;;;11.53;7.23;;;;;4.60;99405.00;;;;4975688;28;20286;-75
2021/12/04 02:05:51;;;;;;;12.73;6.77;;;;;4.60;99403.00;;;;4995277;28;20235;-73
2021/12/04 02:08:39;;;;;;;12.80;6.80;;;;;4.70;99406.00;;;;4964801;28;20267;-72
2021/12/04 02:11:25;;;;;;;10.73;6.43;;;;;4.60;99393.00;;;;4958760;28;20619;-75
2021/12/04 02:14:12;;;;;;;10.20;6.53;;;;;4.60;99395.00;;;;4955931;28;20750;-74
2021/12/04 02:16:59;;;;;;;9.37;6.37;;;;;4.60;99386.00;;;;4958373;28;20239;-73
2021/12/04 02:19:46;;;;;;;10.43;6.67;;;;;4.50;99387.00;;;;4956855;28;20273;-72
2021/12/04 02:22:34;;;;;;;10.33;6.70;;;;;4.70;99373.00;;;;4966255;28;20652;-74
2021/12/04 02:25:20;;;;;;;10.97;6.33;;;;;4.60;99381.00;;;;4973926;28;20239;-73
2021/12/04 02:28:09;;;;;;;8.17;5.87;;;;;4.60;99381.00;;;;4986662;28;20244;-72
2021/12/04 02:30:56;;;;;;;10.77;6.63;;;;;4.60;99372.00;;;;4982982;28;20271;-70
2021/12/04 02:33:42;;;;;;;12.50;7.00;;;;;4.60;99380.00;;;;4967655;28;20282;-70
2021/12/04 02:36:29;;;;;;;10.27;6.60;;;;;4.60;99377.00;;;;4988480;28;20299;-72
2021/12/04 02:39:26;;;;;;;9.33;6.33;;;;;4.60;99361.00;;;;4971544;28;20304;-72
2021/12/04 02:42:22;;;;;;;8.80;6.07;;;;;4.70;99359.00;;;;4963334;28;20238;-71
2021/12/04 02:45:10;;;;;;;14.70;6.83;;;;;4.70;99349.00;;;;4991038;28;20355;-71
2021/12/04 02:47:57;;;;;;;9.80;6.50;;;;;4.60;99342.00;;;;4961193;28;20243;-71
2021/12/04 02:50:43;;;;;;;11.23;6.03;;;;;4.50;99342.00;;;;4959422;28;20649;-74
2021/12/04 02:53:30;;;;;;;10.40;6.13;;;;;4.40;99334.00;;;;5013059;28;20225;-70
2021/12/04 02:56:17;;;;;;;10.50;6.57;;;;;4.50;99339.00;;;;4958532;28;20244;-71
2021/12/04 02:59:04;;;;;;;10.80;6.27;;;;;4.50;99325.00;;;;4961405;28;20239;-73
2021/12/04 03:01:53;;;;;;;9.13;5.90;;;;;4.50;99327.00;;;;4960746;28;20239;-72
2021/12/04 03:04:39;;;;;;;9.90;6.43;;;;;4.70;99314.00;;;;4959664;28;20228;-72
2021/12/04 03:07:27;;;;;;;11.13;6.50;;;;;4.60;99305.00;;;;4977993;28;20239;-71
2021/12/04 03:10:13;;;;;;;9.80;5.70;;;;;4.50;99297.00;;;;4975629;28;20662;-72
2021/12/04 03:13:01;;;;;;;10.37;6.37;;;;;4.50;99292.00;;;;4962094;28;20314;-71
2021/12/04 03:15:55;;;;;;;9.57;6.63;;;;;4.50;99285.00;;;;4970721;28;20309;-73
2021/12/04 03:18:41;;;;;;;12.37;7.17;;;;;4.60;99289.00;;;;4967524;28;20227;-72
2021/12/04 03:21:27;;;;;;;11.43;6.93;;;;;4.60;99282.00;;;;4983260;28;20224;-74
2021/12/04 03:24:15;;;;;;;11.37;6.90;;;;;4.60;99271.00;;;;4976485;28;20358;-74
2021/12/04 03:27:02;;;;;;;11.30;6.90;;;;;4.60;99279.00;;;;4972053;28;20721;-72
2021/12/04 03:29:54;;;;;;;10.63;6.90;;;;;4.60;99267.00;;;;4959619;28;20231;-74
2021/12/04 03:35:13;;;;;;;10.97;6.53;;;;;4.70;99260.00;;;;4982034;28;20224;-73
2021/12/04 03:42:08;;;;;;;14.43;6.87;;;;;4.60;99265.00;;;;4961754;28;20617;-72
2021/12/04 03:44:56;;;;;;;10.80;6.80;;;;;4.50;99272.00;;;;4961771;28;20306;-72
2021/12/04 03:47:45;;;;;;;12.23;6.60;;;;;4.50;99259.00;;;;4951069;28;20231;-73
2021/12/04 03:50:32;;;;;;;12.13;6.50;;;;;4.60;99254.00;;;;4972812;28;20227;-71
2021/12/04 03:53:18;;;;;;;11.50;6.83;;;;;4.60;99256.00;;;;4964324;28;20231;-72
2021/12/04 03:56:06;;;;;;;11.63;6.70;;;;;4.60;99235.00;;;;4966669;28;20239;-74
2021/12/04 03:58:52;;;;;;;11.80;6.70;;;;;4.60;99233.00;;;;4947231;28;20299;-73
2021/12/04 04:01:40;;;;;;;11.37;6.70;;;;;4.60;99241.00;;;;4966326;28;20232;-73
2021/12/04 04:04:27;;;;;;;11.83;6.80;;;;;4.70;99241.00;;;;4946710;28;20243;-74
2021/12/04 04:07:13;;;;;;;11.47;6.80;;;;;4.70;99233.00;;;;4961878;28;20240;-71
2021/12/04 04:09:59;;;;;;;11.63;6.90;;;;;4.60;99237.00;;;;4960058;28;20610;-75
2021/12/04 04:12:46;;;;;;;11.53;7.13;;;;;4.50;99238.00;;;;4947820;28;20227;-72
2021/12/04 04:15:32;;;;;;;14.60;7.17;;;;;4.60;99241.00;;;;4966024;28;20713;-73
2021/12/04 04:18:19;;;;;;;11.93;6.47;;;;;4.60;99239.00;;;;4966389;28;20358;-74
2021/12/04 04:21:06;;;;;;;10.80;6.63;;;;;4.60;99235.00;;;;4989242;28;20331;-74
2021/12/04 04:23:52;;;;;;;12.17;6.80;;;;;4.60;99236.00;;;;4979385;28;20322;-72
2021/12/04 04:26:39;;;;;;;11.43;6.80;;;;;4.70;99208.00;;;;4975286;28;20377;-71
2021/12/04 04:29:27;;;;;;;11.70;6.93;;;;;4.60;99215.00;;;;4965889;28;20313;-72
2021/12/04 04:32:13;;;;;;;10.10;6.30;;;;;4.60;99216.00;;;;4962382;28;20240;-74
2021/12/04 04:35:08;;;;;;;11.20;6.30;;;;;4.60;99211.00;;;;4953522;28;20240;-73
2021/12/04 04:38:02;;;;;;;13.27;6.93;;;;;4.60;99205.00;;;;4959396;28;20224;-75
2021/12/04 04:59:39;;;;;;;12.03;6.63;;;;;4.60;99193.00;;;;4996109;28;20726;-72
2021/12/04 05:11:59;;;;;;;12.13;6.47;;;;;4.60;99194.00;;;;4957886;28;20251;-72
2021/12/04 05:14:50;;;;;;;12.57;6.87;;;;;4.60;99190.00;;;;5046449;28;20228;-72
2021/12/04 05:17:52;;;;;;;12.10;7.00;;;;;4.60;99193.00;;;;4945913;28;20255;-72
2021/12/04 05:20:40;;;;;;;13.23;7.30;;;;;4.60;99186.00;;;;4945933;28;20273;-75
2021/12/04 05:23:27;;;;;;;12.87;7.60;;;;;4.60;99193.00;;;;4943356;28;20244;-74
2021/12/04 05:26:17;;;;;;;11.00;6.53;;;;;4.60;99202.00;;;;4982950;28;20245;-73
2021/12/04 05:29:03;;;;;;;12.77;7.00;;;;;4.60;99192.00;;;;5007385;28;20310;-73
2021/12/04 05:31:49;;;;;;;15.57;7.57;;;;;4.60;99158.00;;;;4938391;28;20725;-70
2021/12/04 05:34:36;;;;;;;12.13;6.57;;;;;4.60;99188.00;;;;4975925;28;20257;-71
2021/12/04 05:37:22;;;;;;;14.57;7.63;;;;;4.70;99192.00;;;;4945563;28;20263;-71
2021/12/04 05:40:12;;;;;;;14.30;7.30;;;;;4.60;99174.00;;;;4980801;28;20746;-72
2021/12/04 05:43:02;;;;;;;12.23;7.17;;;;;4.70;99173.00;;;;4949126;28;20374;-74
2021/12/04 05:45:52;;;;;;;13.53;7.23;;;;;4.60;99171.00;;;;4938212;28;20231;-72
2021/12/04 05:48:44;;;;;;;12.50;7.50;;;;;4.60;99177.00;;;;4976703;28;20235;-70
2021/12/04 05:51:45;;;;;;;12.07;6.67;;;;;4.60;99166.00;;;;4949868;28;20236;-71
2021/12/04 05:54:44;;;;;;;13.53;7.87;;;;;4.60;99169.00;;;;4963323;28;20231;-71
2021/12/04 05:57:31;;;;;;;12.03;6.80;;;;;4.60;99162.00;;;;4971384;28;20232;-72
2021/12/04 06:00:20;;;;;;;13.17;7.40;;;;;4.60;99164.00;;;;4948557;28;20231;-70
2021/12/04 06:03:06;;;;;;;16.10;7.27;;;;;4.60;99161.00;;;;4943875;28;20290;-71
2021/12/04 06:05:53;;;;;;;14.90;7.53;;;;;4.60;99161.00;;;;4948398;28;20240;-73
2021/12/04 06:08:39;;;;;;;13.80;7.00;;;;;4.70;99170.00;;;;4952049;28;20773;-73
2021/12/04 06:11:26;;;;;;;12.20;7.50;;;;;4.70;99163.00;;;;4970373;28;20228;-70
2021/12/04 06:14:14;;;;;;;12.90;7.33;;;;;4.70;99162.00;;;;4949210;28;20239;-71
2021/12/04 06:17:00;;;;;;;13.73;7.33;;;;;4.70;99172.00;;;;4974407;28;20314;-72
2021/12/04 06:22:50;;;;;;;14.20;7.00;;;;;4.60;99159.00;;;;4983380;28;20231;-73
2021/12/04 06:25:37;;;;;;;11.80;7.03;;;;;4.60;99164.00;;;;4967620;28;20305;-71
2021/12/04 06:28:24;;;;;;;11.73;7.13;;;;;4.60;99170.00;;;;4950495;28;20367;-71
2021/12/04 06:31:12;;;;;;;10.47;6.83;;;;;4.60;99168.00;;;;4970022;28;20236;-72
2021/12/04 06:33:58;;;;;;;11.00;6.53;;;;;4.60;99161.00;;;;4943627;28;20306;-72
2021/12/04 06:36:44;;;;;;;12.07;6.57;;;;;4.70;99168.00;;;;4970309;28;20298;-74
2021/12/04 06:39:31;;;;;;;12.10;7.20;;;;;4.70;99151.00;;;;4949023;28;20232;-71
2021/12/04 06:42:17;;;;;;;14.43;7.43;;;;;4.70;99156.00;;;;4957931;28;20231;-73
2021/12/04 06:45:04;;;;;;;14.57;6.23;;;;;4.70;99153.00;;;;4987398;28;20239;-72
2021/12/04 06:47:55;;;;;;;13.33;6.90;;;;;4.70;99154.00;;;;4960643;28;20313;-71
2021/12/04 06:50:44;;;;;;;12.03;6.60;;;;;4.70;99166.00;;;;4967320;28;20602;-73
2021/12/04 06:53:35;;;;;;;11.80;6.60;;;;;4.70;99159.00;;;;4967340;28;20239;-71
2021/12/04 06:56:22;;;;;;;10.87;6.43;;;;;4.70;99153.00;;;;4947972;28;20263;-71
2021/12/04 06:59:11;;;;;;;14.17;6.50;;;;;4.70;99151.00;;;;4969644;28;20240;-70
2021/12/04 07:01:58;;;;;;;9.93;6.23;;;;;4.70;99149.00;;;;4938042;28;20227;-71
2021/12/04 07:04:46;;;;;;;11.07;6.30;;;;;4.70;99144.00;;;;4959400;28;20608;-73
2021/12/04 07:07:33;;;;;;;13.30;6.63;;;;;4.70;99145.00;;;;4975787;28;20235;-70
2021/12/04 07:10:19;;;;;;;10.77;6.90;;;;;4.70;99149.00;;;;4961007;28;20278;-70
2021/12/04 07:13:06;;;;;;;11.57;7.17;;;;;4.80;99162.00;;;;4953232;28;20310;-71
2021/12/04 07:16:01;;;;;;;11.73;6.47;;;;;4.80;99160.00;;;;4948978;28;20719;-73
2021/12/04 07:18:47;;;;;;;13.73;7.30;;;;;4.80;99154.00;;;;4932020;28;20287;-73
2021/12/04 07:21:35;;;;;;;10.63;6.40;;;;;4.70;99162.00;;;;4939493;28;20240;-73
2021/12/04 07:24:21;;;;;;;11.03;6.17;;;;;4.80;99154.00;;;;4955543;28;20344;-70
2021/12/04 07:27:07;;;;;;;14.23;6.90;;;;;4.80;99152.00;;;;4940540;28;20326;-71
2021/12/04 07:29:54;;;;;;;13.97;6.70;;;;;4.80;99158.00;;;;4970183;28;20243;-71
2021/12/04 07:32:40;;;;;;;12.57;6.63;;;;;4.70;99159.00;;;;4946712;28;20227;-71
2021/12/04 07:35:27;;;;;;;12.33;7.60;;;;;4.80;99154.00;;;;4952167;28;20240;-70
2021/12/04 07:38:14;;;;;;;11.10;6.70;;;;;4.70;99156.00;;;;4951795;28;20236;-70
2021/12/04 07:41:03;;;;;;;12.73;6.87;;;;;4.80;99148.00;;;;4970526;28;20283;-71
2021/12/04 07:43:49;;;;;;;11.23;6.40;;;;;4.70;99148.00;;;;4964459;28;20779;-69
2021/12/04 07:46:35;;;;;;;12.17;6.73;;;;;4.80;99147.00;;;;4951213;28;20240;-69
2021/12/04 07:49:21;;;;;;;17.20;6.63;;;;;4.80;99147.00;;;;4947707;28;20290;-71
2021/12/04 07:52:10;;;;;;;15.70;7.10;;;;;4.80;99147.00;;;;4939187;28;20738;-70
2021/12/04 07:54:57;;;;;;;12.10;6.90;;;;;4.80;99143.00;;;;4946905;28;20248;-69
2021/12/04 07:57:44;;;;;;;11.80;6.77;;;;;4.90;99130.00;;;;4947423;28;20227;-69
2021/12/04 08:00:31;;;;;;;10.90;6.67;;;;;4.90;99149.00;;;;4946870;28;20678;-66
2021/12/04 08:03:18;;;;;;;11.13;6.23;;;;;4.90;99143.00;;;;4963478;28;20632;-68
2021/12/04 08:06:05;;;;;;;13.97;6.53;;;;;4.90;99147.00;;;;4942193;28;20248;-70
2021/12/04 08:08:53;;;;;;;11.70;6.37;;;;;5.00;99153.00;;;;4956236;28;20232;-69
2021/12/04 08:11:40;;;;;;;10.47;6.30;;;;;5.00;99156.00;;;;4981263;28;20232;-69
2021/12/04 08:14:27;;;;;;;12.00;6.23;;;;;5.00;99157.00;;;;4955275;28;20251;-68
2021/12/04 08:17:13;;;;;;;12.17;6.40;;;;;5.00;99153.00;;;;4947910;28;20366;-69
2021/12/04 08:20:00;;;;;;;10.63;6.47;;;;;5.10;99150.00;;;;4965088;28;20271;-68
2021/12/04 08:22:46;;;;;;;12.30;6.77;;;;;5.10;99147.00;;;;4964864;28;20262;-68
2021/12/04 08:25:34;;;;;;;12.33;6.53;;;;;5.10;99143.00;;;;4940552;28;20241;-69
2021/12/04 08:28:21;;;;;;;10.37;6.43;;;;;5.10;99154.00;;;;4934226;28;20758;-70
2021/12/04 08:31:08;;;;;;;13.97;6.70;;;;;5.10;99148.00;;;;4952797;28;20236;-70
2021/12/04 08:33:55;;;;;;;12.00;7.20;;;;;5.20;99142.00;;;;4936776;28;20239;-73
2021/12/04 08:36:42;;;;;;;10.57;6.20;;;;;5.10;99130.00;;;;4948218;28;20791;-69
2021/12/04 08:39:28;;;;;;;11.33;6.00;;;;;5.20;99104.00;;;;4954767;28;20307;-68
2021/12/04 08:42:15;;;;;;;8.60;5.47;;;;;5.20;99113.00;;;;4960078;28;20286;-69
2021/12/04 08:45:03;;;;;;;10.60;6.10;;;;;5.30;99118.00;;;;4950406;28;20236;-70
2021/12/04 08:47:50;;;;;;;11.57;6.50;;;;;5.30;99120.00;;;;4934263;28;20292;-69
2021/12/04 08:50:37;;;;;;;9.67;5.37;;;;;5.40;99120.00;;;;4937293;28;20727;-71
2021/12/04 08:53:23;;;;;;;11.03;6.23;;;;;5.40;99118.00;;;;4968244;28;20252;-72
2021/12/04 08:56:10;;;;;;;9.90;5.90;;;;;5.50;99128.00;;;;4968889;28;20243;-70
2021/12/04 08:58:56;;;;;;;9.27;5.67;;;;;5.50;99132.00;;;;4989295;28;20799;-69
2021/12/04 09:01:44;;;;;;;13.83;6.20;;;;;5.60;99142.00;;;;4945435;28;20236;-71
2021/12/04 09:04:35;;;;;;;11.03;5.80;;;;;5.60;99136.00;;;;4952302;28;20240;-69
2021/12/04 09:07:21;;;;;;;11.33;5.93;;;;;5.50;99137.00;;;;4993589;28;20244;-69
2021/12/04 09:10:09;;;;;;;10.20;5.70;;;;;5.60;99127.00;;;;4984216;28;20240;-69
2021/12/04 09:12:56;;;;;;;11.63;5.57;;;;;5.60;99126.00;;;;4973526;28;20306;-69
2021/12/04 09:15:43;;;;;;;11.70;5.10;;;;;5.60;99118.00;;;;4941853;28;20227;-69
2021/12/04 09:18:30;;;;;;;11.10;5.73;;;;;5.60;99131.00;;;;4943861;28;20247;-70
2021/12/04 09:21:17;;;;;;;10.50;5.43;;;;;5.70;99126.00;;;;4965730;28;20239;-71
2021/12/04 09:24:08;;;;;;;12.53;5.30;;;;;5.70;99126.00;;;;4977811;28;20308;-69
2021/12/04 09:27:00;;;;;;;8.97;5.47;;;;;5.90;99115.00;;;;4963769;28;20286;-69
2021/12/04 09:30:06;;;;;;;10.40;5.40;;;;;5.80;99112.00;;;;4989040;28;20240;-68
2021/12/04 09:36:29;;;;;;;7.83;5.13;;;;;6.00;99100.00;;;;4935257;28;20235;-69
2021/12/04 10:01:20;;;;;;;9.03;6.10;;;;;6.50;99074.00;;;;4941972;28;20234;-73
2021/12/04 10:04:39;;;;;;;12.83;6.60;;;;;6.40;99067.00;;;;4972041;28;20246;-71
2021/12/04 10:14:01;;;;;;;9.70;6.00;;;;;6.60;99049.00;;;;4950131;28;20234;-70
2021/12/04 10:19:58;;;;;;;11.53;6.20;;;;;6.50;99027.00;;;;4980592;28;20226;-68
2021/12/04 10:23:18;;;;;;;10.73;6.33;;;;;6.50;99027.00;;;;4961529;28;20235;-69
2021/12/04 10:32:37;;;;;;;10.33;6.33;;;;;6.60;99008.00;;;;4960379;28;20239;-68
2021/12/04 10:35:24;;;;;;;11.70;6.47;;;;;6.70;98993.00;;;;4961220;28;20310;-68
2021/12/04 10:38:19;;;;;;;11.30;7.17;;;;;6.60;98997.00;;;;4963702;28;20305;-69
2021/12/04 10:41:06;;;;;;;11.80;7.30;;;;;6.70;99002.00;;;;4983904;28;20233;-69
2021/12/04 10:43:52;;;;;;;14.47;8.23;;;;;6.70;99008.00;;;;4968021;28;20231;-69
2021/12/04 10:46:39;;;;;;;11.67;7.00;;;;;6.80;99000.00;;;;4962707;28;20633;-67
2021/12/04 10:49:40;;;;;;;9.77;6.50;;;;;6.70;98989.00;;;;4956445;28;20298;-68
2021/12/04 10:52:34;;;;;;;11.43;7.07;;;;;6.70;98986.00;;;;4957990;28;20796;-69
2021/12/04 10:55:26;;;;;;;10.83;6.43;;;;;6.70;98983.00;;;;4957416;28;20243;-69
2021/12/04 11:01:30;;;;;;;10.90;5.73;;;;;6.60;98989.00;;;;4961450;28;20239;-69
2021/12/04 11:04:27;;;;;;;9.27;6.03;;;;;6.60;98988.00;;;;4965584;28;20239;-67
2021/12/04 11:20:20;;;;;;;10.90;6.03;;;;;6.70;98937.00;;;;4984741;28;20234;-68
2021/12/04 11:23:33;;;;;;;9.17;6.23;;;;;6.80;98929.00;;;;4985502;28;20243;-70
2021/12/04 11:39:06;;;;;;;10.50;5.33;;;;;6.70;98896.00;;;;4972412;28;20277;-68
2021/12/04 11:42:02;;;;;;;9.20;5.53;;;;;6.70;98890.00;;;;4978681;28;20251;-67
2021/12/04 11:44:54;;;;;;;8.77;5.80;;;;;6.80;98889.00;;;;4962332;28;20230;-67
2021/12/04 11:47:42;;;;;;;9.43;5.73;;;;;6.80;98889.00;;;;5000709;28;20308;-67
2021/12/04 11:50:32;;;;;;;10.17;6.00;;;;;6.80;98873.00;;;;4994824;28;20301;-67
2021/12/04 11:53:20;;;;;;;9.00;6.20;;;;;6.90;98861.00;;;;4966019;28;20339;-69
2021/12/04 11:56:12;;;;;;;9.20;5.87;;;;;7.00;98857.00;;;;4960874;28;20243;-72
2021/12/04 11:59:00;;;;;;;9.13;5.90;;;;;7.00;98866.00;;;;4978184;28;20227;-69
2021/12/04 12:01:56;;;;;;;9.60;6.00;;;;;7.00;98858.00;;;;4967202;28;20239;-71
2021/12/04 12:04:47;;;;;;;9.77;5.37;;;;;7.00;98866.00;;;;4969915;28;20245;-72
2021/12/04 12:07:33;;;;;;;10.53;5.87;;;;;7.00;98868.00;;;;4971804;28;20240;-68
2021/12/04 12:10:19;;;;;;;16.50;8.77;;;;;7.00;98866.00;;;;4967484;28;20359;-68
2021/12/04 12:13:06;;;;;;;14.70;8.27;;;;;7.00;98861.00;;;;4964308;28;20258;-68
2021/12/04 12:16:05;;;;;;;11.10;6.40;;;;;7.20;98863.00;;;;5010157;28;20306;-67
2021/12/04 12:18:55;;;;;;;9.23;5.23;;;;;7.10;98855.00;;;;4962973;28;20231;-67
2021/12/04 12:21:50;;;;;;;7.90;5.20;;;;;7.10;98856.00;;;;4999908;28;20231;-68
2021/12/04 12:27:54;;;;;;;7.97;4.97;;;;;7.10;98835.00;;;;4993520;28;20236;-65
2021/12/04 12:33:58;;;;;;;5.13;4.20;;;;;7.10;98834.00;;;;4957828;28;20785;-64
2021/12/04 12:36:43;;;;;;;8.60;4.17;;;;;7.20;98828.00;;;;4965355;28;20231;-66
2021/12/04 12:39:30;;;;;;;7.40;4.53;;;;;7.20;98825.00;;;;5003050;28;20355;-67
2021/12/04 12:42:23;;;;;;;7.57;5.00;;;;;7.10;98827.00;;;;4965342;28;20317;-67
2021/12/04 12:45:19;;;;;;;9.60;5.07;;;;;7.10;98818.00;;;;4961909;28;20251;-66
2021/12/04 12:48:10;;;;;;;8.40;5.10;;;;;7.10;98807.00;;;;4982398;28;20837;-67
2021/12/04 12:51:08;;;;;;;12.20;5.07;;;;;7.10;98817.00;;;;4964610;28;20230;-67
2021/12/04 12:53:55;;;;;;;37.10;7.97;;;;;7.00;98818.00;;;;4979037;28;20227;-69
2021/12/04 12:56:46;;;;;;;19.00;6.70;;;;;7.00;98805.00;;;;4964833;28;20227;-67
2021/12/04 12:59:39;;;;;;;24.80;7.13;;;;;7.00;98797.00;;;;4963911;28;20235;-66
2021/12/04 13:12:01;;;;;;;7.33;4.30;;;;;6.90;98762.00;;;;5033273;28;20786;-68
2021/12/04 13:14:51;;;;;;;5.23;3.70;;;;;7.00;98781.00;;;;4967176;28;20251;-70
2021/12/04 13:17:39;;;;;;;7.20;4.53;;;;;7.00;98778.00;;;;4945817;28;20681;-69
2021/12/04 13:20:26;;;;;;;6.63;4.57;;;;;7.10;98767.00;;;;5006342;28;20275;-68
2021/12/04 13:23:14;;;;;;;5.07;3.80;;;;;7.10;98759.00;;;;4954202;28;20305;-68
2021/12/04 13:26:05;;;;;;;7.67;3.90;;;;;7.00;98758.00;;;;4971662;28;20235;-67
2021/12/04 13:28:53;;;;;;;5.20;4.00;;;;;7.10;98753.00;;;;4938769;28;20278;-68
2021/12/04 13:31:40;;;;;;;8.40;5.03;;;;;7.00;98756.00;;;;4962433;28;20243;-67
2021/12/04 13:34:28;;;;;;;5.57;4.13;;;;;7.10;98759.00;;;;4946388;28;20239;-69
2021/12/04 13:37:15;;;;;;;6.23;4.23;;;;;6.90;98748.00;;;;4967385;28;20254;-67
2021/12/04 13:40:05;;;;;;;6.60;4.47;;;;;7.00;98772.00;;;;4980244;28;20234;-68
2021/12/04 13:42:53;;;;;;;5.90;3.93;;;;;6.90;98769.00;;;;4956969;28;20250;-68
2021/12/04 13:45:39;;;;;;;5.87;4.00;;;;;6.80;98772.00;;;;4964136;28;20250;-69
2021/12/04 13:48:27;;;;;;;6.33;4.20;;;;;6.80;98774.00;;;;4964187;28;20267;-68
2021/12/04 13:51:14;;;;;;;5.97;4.10;;;;;6.70;98780.00;;;;4964851;28;20389;-70
2021/12/04 13:54:02;;;;;;;5.63;3.97;;;;;6.70;98769.00;;;;4964107;28;20350;-68
2021/12/04 13:56:49;;;;;;;4.37;3.77;;;;;6.60;98774.00;;;;4947594;28;20235;-70
2021/12/04 13:59:36;;;;;;;6.57;4.00;;;;;6.60;98784.00;;;;4978669;28;20873;-68
2021/12/04 14:02:25;;;;;;;5.70;4.00;;;;;6.60;98793.00;;;;4948258;28;20327;-67
2021/12/04 14:05:14;;;;;;;5.27;3.47;;;;;6.60;98783.00;;;;4973267;28;20244;-70
2021/12/04 14:08:03;;;;;;;5.67;3.60;;;;;6.50;98783.00;;;;4943147;28;20615;-68
2021/12/04 14:10:50;;;;;;;5.73;3.53;;;;;6.30;98788.00;;;;4933741;28;20302;-70
2021/12/04 14:13:39;;;;;;;4.93;3.63;;;;;6.30;98791.00;;;;4933670;28;20319;-69
2021/12/04 14:16:27;;;;;;;7.63;3.80;;;;;6.30;98794.00;;;;4954515;28;20231;-69
2021/12/04 14:19:16;;;;;;;8.80;4.43;;;;;6.30;98794.00;;;;4953102;28;20240;-68
2021/12/04 14:22:05;;;;;;;5.47;3.93;;;;;6.20;98791.00;;;;4954649;28;20231;-68
2021/12/04 14:24:58;;;;;;;4.73;3.97;;;;;6.20;98794.00;;;;4970078;28;20234;-70
2021/12/04 14:27:45;;;;;;;5.93;4.17;;;;;6.10;98766.00;;;;4970721;28;21619;-70
2021/12/04 14:30:34;;;;;;;7.80;3.90;;;;;6.10;98784.00;;;;4958692;28;20301;-72
2021/12/04 14:33:24;;;;;;;11.43;5.80;;;;;6.10;98786.00;;;;4963718;28;20297;-68
2021/12/04 14:36:11;;;;;;;7.67;4.70;;;;;6.10;98786.00;;;;4962860;28;20294;-69
2021/12/04 14:39:02;;;;;;;6.17;4.27;;;;;6.10;98784.00;;;;4957108;28;20739;-71
2021/12/04 14:41:48;;;;;;;7.97;4.40;;;;;6.10;98795.00;;;;4972660;28;20222;-72
2021/12/04 14:44:36;;;;;;;7.80;4.73;;;;;6.00;98782.00;;;;4979962;28;20888;-70
2021/12/04 14:47:24;;;;;;;6.80;4.50;;;;;6.10;98787.00;;;;4964054;28;20267;-70
2021/12/04 14:50:14;;;;;;;7.33;4.90;;;;;6.10;98791.00;;;;4966645;28;20333;-71
2021/12/04 14:53:03;;;;;;;7.43;4.97;;;;;6.10;98785.00;;;;4957901;28;20306;-70
2021/12/04 14:55:51;;;;;;;7.63;4.83;;;;;6.10;98802.00;;;;4959367;28;20239;-66
2021/12/04 14:58:37;;;;;;;6.63;4.70;;;;;6.10;98804.00;;;;4966742;28;20231;-68
2021/12/04 15:01:26;;;;;;;7.23;4.97;;;;;6.00;98814.00;;;;4966160;28;20816;-73
2021/12/04 15:04:13;;;;;;;7.43;4.70;;;;;6.00;98820.00;;;;4966526;28;20243;-72
2021/12/04 15:07:00;;;;;;;8.63;5.30;;;;;6.00;98806.00;;;;4960531;28;20227;-72
2021/12/04 15:09:47;;;;;;;7.73;4.83;;;;;6.00;98817.00;;;;4959140;28;20239;-72
2021/12/04 15:12:35;;;;;;;9.10;4.83;;;;;6.00;98809.00;;;;4965984;28;20280;-71
2021/12/04 15:15:22;;;;;;;11.23;5.20;;;;;6.00;98822.00;;;;4970080;28;20297;-70
2021/12/04 15:18:13;;;;;;;8.93;5.93;;;;;6.00;98809.00;;;;4963215;28;20235;-75
2021/12/04 15:21:02;;;;;;;9.20;5.60;;;;;6.00;98826.00;;;;4987936;28;20227;-75
2021/12/04 15:23:55;;;;;;;13.90;7.97;;;;;6.00;98829.00;;;;4977650;28;20236;-76
2021/12/04 15:26:42;;;;;;;10.33;7.10;;;;;6.00;98827.00;;;;4965653;28;20297;-76
2021/12/04 15:29:34;;;;;;;9.87;6.63;;;;;6.10;98828.00;;;;4989658;28;20347;-72
2021/12/04 15:32:24;;;;;;;11.93;6.97;;;;;6.00;98823.00;;;;4980193;28;20246;-73
2021/12/04 15:35:24;;;;;;;11.67;7.07;;;;;6.10;98836.00;;;;4962044;28;20243;-73
2021/12/04 15:38:18;;;;;;;11.23;6.47;;;;;6.00;98840.00;;;;4972563;28;20235;-75
2021/12/04 15:41:17;;;;;;;11.13;6.87;;;;;5.90;98837.00;;;;4961761;28;20235;-75
2021/12/04 15:44:16;;;;;;;11.67;6.80;;;;;5.90;98834.00;;;;4972687;28;20228;-74
2021/12/04 15:47:13;;;;;;;15.77;7.77;;;;;6.00;98838.00;;;;4967070;28;20742;-74
2021/12/04 15:50:43;;;;;;;12.90;8.33;;;;;5.90;98838.00;;;;4981719;28;20241;-74
2021/12/04 15:53:30;;;;;;;9.57;6.67;;;;;5.90;98835.00;;;;4962031;28;20238;-73
2021/12/04 15:56:31;;;;;;;11.27;7.23;;;;;5.90;98842.00;;;;4963456;28;20332;-72
2021/12/04 15:59:19;;;;;;;10.50;7.00;;;;;5.80;98852.00;;;;4960347;28;20234;-75
2021/12/04 16:02:13;;;;;;;10.83;7.70;;;;;5.80;98852.00;;;;4979816;28;20240;-75
2021/12/04 16:05:09;;;;;;;11.97;7.80;;;;;5.80;98856.00;;;;4980868;28;20311;-72
2021/12/04 16:08:06;;;;;;;9.77;7.90;;;;;5.80;98852.00;;;;4957201;28;20243;-73
2021/12/04 16:10:53;;;;;;;13.03;7.40;;;;;5.80;98855.00;;;;4964700;28;20235;-75
2021/12/04 16:13:49;;;;;;;12.03;7.67;;;;;5.90;98853.00;;;;4958032;28;20710;-75
2021/12/04 16:16:39;;;;;;;15.30;9.83;;;;;5.90;98852.00;;;;4962505;28;20301;-75
2021/12/04 16:19:27;;;;;;;12.73;8.70;;;;;5.90;98852.00;;;;4980801;28;20769;-73
2021/12/04 16:22:14;;;;;;;14.40;8.30;;;;;5.80;98850.00;;;;4968713;28;20343;-74
2021/12/04 16:25:00;;;;;;;13.33;8.63;;;;;5.90;98860.00;;;;4957397;28;20228;-73
2021/12/04 16:28:03;;;;;;;12.53;8.07;;;;;5.90;98847.00;;;;4961036;28;20231;-74